Coffee Creek, Montana
Current Conditions -  °F | °C
As of 7:24 PM on Tuesday 21 Oct 2014 (Local Time) from KLWT Reporting Station
Overcast Overcast  
Wind Chill: 40°   Ceiling: 1900
Heat Index: 46°   Visibility: 10mi
Dew Point: 41°   Wind: 13mph
Humidity: 83%   Direction: 290°WNW
Pressure: 29.85"   Gusts: 21mph
Location:  47.34°N, 110.08°W
Report Text: KLWT 220124Z AUTO 29011G18KT 10SM SCT013 BKN019 OVC026 08/05 A2985 RMK AO2 T00780050
Loading
Personal Weather Stations






























Interactive Weather Map New forecast layout! Learn more

10-Day Weather Forecast

Advertisements
Track Severe Weather on mobile